sensor_id;sensor_type;location;lat;lon;timestamp;pressure;altitude;pressure_sealevel;temperature;humidity
48555;BME280;34336;48.270;16.716;2023-03-19T00:01:47;109325.25;;;18.16;56.32
48555;BME280;34336;48.270;16.716;2023-03-19T00:04:13;109325.25;;;18.16;56.41
48555;BME280;34336;48.270;16.716;2023-03-19T00:06:42;109325.25;;;18.16;56.48
48555;BME280;34336;48.270;16.716;2023-03-19T00:09:09;109325.25;;;18.16;56.38
48555;BME280;34336;48.270;16.716;2023-03-19T00:11:36;109325.25;;;18.16;56.78
48555;BME280;34336;48.270;16.716;2023-03-19T00:14:02;109325.25;;;18.16;57.25
48555;BME280;34336;48.270;16.716;2023-03-19T00:16:29;109325.25;;;18.16;57.04
48555;BME280;34336;48.270;16.716;2023-03-19T00:18:56;109325.25;;;18.16;57.33
48555;BME280;34336;48.270;16.716;2023-03-19T00:21:22;109325.25;;;18.16;57.57
48555;BME280;34336;48.270;16.716;2023-03-19T00:23:51;109325.25;;;18.16;57.83
48555;BME280;34336;48.270;16.716;2023-03-19T00:26:18;109325.25;;;18.16;58.22
48555;BME280;34336;48.270;16.716;2023-03-19T00:28:44;109325.25;;;18.16;58.43
48555;BME280;34336;48.270;16.716;2023-03-19T00:31:12;109325.25;;;18.16;58.53
48555;BME280;34336;48.270;16.716;2023-03-19T00:33:40;109325.25;;;18.16;58.90
48555;BME280;34336;48.270;16.716;2023-03-19T00:36:08;109325.25;;;18.16;59.04
48555;BME280;34336;48.270;16.716;2023-03-19T00:38:35;109325.25;;;18.16;59.30
48555;BME280;34336;48.270;16.716;2023-03-19T00:41:02;109325.25;;;18.16;59.04
48555;BME280;34336;48.270;16.716;2023-03-19T00:43:29;109325.25;;;18.16;59.25
48555;BME280;34336;48.270;16.716;2023-03-19T00:45:56;109325.25;;;18.16;59.73
48555;BME280;34336;48.270;16.716;2023-03-19T00:48:23;109325.25;;;18.16;59.75
48555;BME280;34336;48.270;16.716;2023-03-19T00:50:49;109325.25;;;18.16;59.97
48555;BME280;34336;48.270;16.716;2023-03-19T00:53:17;109325.25;;;18.16;60.27
48555;BME280;34336;48.270;16.716;2023-03-19T00:55:43;109325.25;;;18.16;60.13
48555;BME280;34336;48.270;16.716;2023-03-19T00:58:10;109325.25;;;18.16;60.18
48555;BME280;34336;48.270;16.716;2023-03-19T01:00:37;109325.25;;;18.16;60.23
48555;BME280;34336;48.270;16.716;2023-03-19T01:03:04;109325.25;;;18.16;60.26
48555;BME280;34336;48.270;16.716;2023-03-19T01:05:33;109325.25;;;18.16;60.23
48555;BME280;34336;48.270;16.716;2023-03-19T01:08:00;109325.25;;;18.16;60.52
48555;BME280;34336;48.270;16.716;2023-03-19T01:10:28;109325.25;;;18.16;60.59
48555;BME280;34336;48.270;16.716;2023-03-19T01:12:55;109325.25;;;18.16;60.60
48555;BME280;34336;48.270;16.716;2023-03-19T01:15:22;109325.25;;;18.16;60.48
48555;BME280;34336;48.270;16.716;2023-03-19T01:17:48;109325.25;;;18.16;60.53
48555;BME280;34336;48.270;16.716;2023-03-19T01:20:16;109325.25;;;18.16;60.86
48555;BME280;34336;48.270;16.716;2023-03-19T01:22:44;109325.25;;;18.16;61.13
48555;BME280;34336;48.270;16.716;2023-03-19T01:25:11;109325.25;;;18.16;61.07
48555;BME280;34336;48.270;16.716;2023-03-19T01:27:45;109325.25;;;18.16;61.17
48555;BME280;34336;48.270;16.716;2023-03-19T01:30:13;109325.25;;;18.16;61.21
48555;BME280;34336;48.270;16.716;2023-03-19T01:33:06;109325.25;;;18.16;61.14
48555;BME280;34336;48.270;16.716;2023-03-19T01:35:39;109325.25;;;18.16;60.97
48555;BME280;34336;48.270;16.716;2023-03-19T01:38:06;109325.25;;;18.16;60.75
48555;BME280;34336;48.270;16.716;2023-03-19T01:40:33;109325.25;;;18.16;61.10
48555;BME280;34336;48.270;16.716;2023-03-19T01:45:59;109325.25;;;18.16;61.97
48555;BME280;34336;48.270;16.716;2023-03-19T01:51:07;109325.25;;;18.16;62.34
48555;BME280;34336;48.270;16.716;2023-03-19T01:53:46;109325.25;;;18.16;62.29
48555;BME280;34336;48.270;16.716;2023-03-19T01:56:23;109325.25;;;18.16;62.47
48555;BME280;34336;48.270;16.716;2023-03-19T01:59:00;109325.25;;;18.16;62.44
48555;BME280;34336;48.270;16.716;2023-03-19T02:01:53;109325.25;;;18.16;62.55
48555;BME280;34336;48.270;16.716;2023-03-19T02:04:23;109325.25;;;18.16;62.75
48555;BME280;34336;48.270;16.716;2023-03-19T02:06:52;109325.25;;;18.16;62.75
48555;BME280;34336;48.270;16.716;2023-03-19T02:09:19;109325.25;;;18.16;62.91
48555;BME280;34336;48.270;16.716;2023-03-19T02:11:46;109325.25;;;18.16;62.68
48555;BME280;34336;48.270;16.716;2023-03-19T02:14:12;109325.25;;;18.16;62.89
48555;BME280;34336;48.270;16.716;2023-03-19T02:16:39;109325.25;;;18.16;63.08
48555;BME280;34336;48.270;16.716;2023-03-19T02:19:07;109325.25;;;18.16;63.36
48555;BME280;34336;48.270;16.716;2023-03-19T02:21:35;109325.25;;;18.16;63.36
48555;BME280;34336;48.270;16.716;2023-03-19T02:27:02;109325.25;;;18.16;63.33
48555;BME280;34336;48.270;16.716;2023-03-19T02:29:30;109325.25;;;18.16;63.68
48555;BME280;34336;48.270;16.716;2023-03-19T02:31:58;109325.25;;;18.16;63.92
48555;BME280;34336;48.270;16.716;2023-03-19T02:37:15;109325.25;;;18.16;64.16
48555;BME280;34336;48.270;16.716;2023-03-19T02:39:45;109325.25;;;18.16;64.79
48555;BME280;34336;48.270;16.716;2023-03-19T02:42:13;109325.25;;;18.16;64.75
48555;BME280;34336;48.270;16.716;2023-03-19T02:44:41;109325.25;;;18.16;64.70
48555;BME280;34336;48.270;16.716;2023-03-19T02:47:08;109325.25;;;18.16;64.16
48555;BME280;34336;48.270;16.716;2023-03-19T02:49:34;109325.25;;;18.16;64.06
48555;BME280;34336;48.270;16.716;2023-03-19T02:52:01;109325.25;;;18.16;63.96
48555;BME280;34336;48.270;16.716;2023-03-19T02:54:28;109325.25;;;18.16;63.83
48555;BME280;34336;48.270;16.716;2023-03-19T02:56:54;109325.25;;;18.16;64.26
48555;BME280;34336;48.270;16.716;2023-03-19T02:59:21;109325.25;;;18.16;64.06
48555;BME280;34336;48.270;16.716;2023-03-19T03:01:47;109325.25;;;18.16;63.85
48555;BME280;34336;48.270;16.716;2023-03-19T03:04:14;109325.25;;;18.16;63.89
48555;BME280;34336;48.270;16.716;2023-03-19T03:06:43;109325.25;;;18.16;63.53
48555;BME280;34336;48.270;16.716;2023-03-19T03:09:10;109325.25;;;18.16;63.52
48555;BME280;34336;48.270;16.716;2023-03-19T03:11:38;109325.25;;;18.16;63.43
48555;BME280;34336;48.270;16.716;2023-03-19T03:14:07;109325.25;;;18.16;63.31
48555;BME280;34336;48.270;16.716;2023-03-19T03:16:34;109325.25;;;18.16;63.19
48555;BME280;34336;48.270;16.716;2023-03-19T03:19:01;109325.25;;;18.16;63.45
48555;BME280;34336;48.270;16.716;2023-03-19T03:21:27;109325.25;;;18.16;63.56
48555;BME280;34336;48.270;16.716;2023-03-19T03:23:54;109325.25;;;18.16;63.74
48555;BME280;34336;48.270;16.716;2023-03-19T03:26:21;109325.25;;;18.16;63.84
48555;BME280;34336;48.270;16.716;2023-03-19T03:28:48;109325.25;;;18.16;64.14
48555;BME280;34336;48.270;16.716;2023-03-19T03:31:15;109325.25;;;18.16;63.89
48555;BME280;34336;48.270;16.716;2023-03-19T03:33:42;109325.25;;;18.16;64.07
48555;BME280;34336;48.270;16.716;2023-03-19T03:36:08;109325.25;;;18.16;63.84
48555;BME280;34336;48.270;16.716;2023-03-19T03:38:35;109325.25;;;18.16;63.91
48555;BME280;34336;48.270;16.716;2023-03-19T03:41:01;109325.25;;;18.16;64.06
48555;BME280;34336;48.270;16.716;2023-03-19T03:43:28;109325.25;;;18.16;64.30
48555;BME280;34336;48.270;16.716;2023-03-19T03:45:55;109325.25;;;18.16;64.27
48555;BME280;34336;48.270;16.716;2023-03-19T03:48:22;109325.25;;;18.16;64.78
48555;BME280;34336;48.270;16.716;2023-03-19T03:50:48;109325.25;;;18.16;64.74
48555;BME280;34336;48.270;16.716;2023-03-19T03:53:19;109325.25;;;18.16;65.32
48555;BME280;34336;48.270;16.716;2023-03-19T03:55:45;109325.25;;;18.16;65.49
48555;BME280;34336;48.270;16.716;2023-03-19T03:58:13;109325.25;;;18.16;65.12
48555;BME280;34336;48.270;16.716;2023-03-19T04:00:40;109325.25;;;18.16;65.55
48555;BME280;34336;48.270;16.716;2023-03-19T04:03:06;109325.25;;;18.16;65.62
48555;BME280;34336;48.270;16.716;2023-03-19T04:05:34;109325.25;;;18.16;65.61
48555;BME280;34336;48.270;16.716;2023-03-19T04:08:02;109325.25;;;18.16;66.19
48555;BME280;34336;48.270;16.716;2023-03-19T04:10:32;109325.25;;;18.16;65.74
48555;BME280;34336;48.270;16.716;2023-03-19T04:13:01;109325.25;;;18.16;65.30
48555;BME280;34336;48.270;16.716;2023-03-19T04:15:29;109325.25;;;18.16;65.66
48555;BME280;34336;48.270;16.716;2023-03-19T04:17:58;109325.25;;;18.16;65.63
48555;BME280;34336;48.270;16.716;2023-03-19T04:20:24;109325.25;;;18.16;65.80
48555;BME280;34336;48.270;16.716;2023-03-19T04:22:51;109325.25;;;18.16;65.80
48555;BME280;34336;48.270;16.716;2023-03-19T04:25:17;109325.25;;;18.16;66.09
48555;BME280;34336;48.270;16.716;2023-03-19T04:27:44;109325.25;;;18.16;66.05
48555;BME280;34336;48.270;16.716;2023-03-19T04:30:11;109325.25;;;18.16;65.80
48555;BME280;34336;48.270;16.716;2023-03-19T04:32:38;109325.25;;;18.16;65.90
48555;BME280;34336;48.270;16.716;2023-03-19T04:35:06;109325.25;;;18.16;65.73
48555;BME280;34336;48.270;16.716;2023-03-19T04:37:33;109325.25;;;18.16;66.01
48555;BME280;34336;48.270;16.716;2023-03-19T04:40:00;109325.25;;;18.16;66.09
48555;BME280;34336;48.270;16.716;2023-03-19T04:42:30;109325.25;;;18.16;66.13
48555;BME280;34336;48.270;16.716;2023-03-19T04:45:10;109325.25;;;18.16;66.25
48555;BME280;34336;48.270;16.716;2023-03-19T04:47:38;109325.25;;;18.16;66.23
48555;BME280;34336;48.270;16.716;2023-03-19T04:50:06;109325.25;;;18.16;66.21
48555;BME280;34336;48.270;16.716;2023-03-19T04:52:34;109325.25;;;18.16;66.29
48555;BME280;34336;48.270;16.716;2023-03-19T04:55:03;109325.25;;;18.16;66.13
48555;BME280;34336;48.270;16.716;2023-03-19T04:57:39;109325.25;;;18.16;65.92
48555;BME280;34336;48.270;16.716;2023-03-19T05:00:07;109325.25;;;18.16;65.94
48555;BME280;34336;48.270;16.716;2023-03-19T05:02:37;109325.25;;;18.16;66.33
48555;BME280;34336;48.270;16.716;2023-03-19T05:05:04;109325.25;;;18.16;66.15
48555;BME280;34336;48.270;16.716;2023-03-19T05:07:30;109325.25;;;18.16;66.54
48555;BME280;34336;48.270;16.716;2023-03-19T05:09:59;109325.25;;;18.16;66.44
48555;BME280;34336;48.270;16.716;2023-03-19T05:12:25;109325.25;;;18.16;65.94
48555;BME280;34336;48.270;16.716;2023-03-19T05:14:54;109325.25;;;18.16;64.70
48555;BME280;34336;48.270;16.716;2023-03-19T05:17:28;109325.25;;;18.16;64.00
48555;BME280;34336;48.270;16.716;2023-03-19T05:20:09;109325.25;;;18.16;62.96
48555;BME280;34336;48.270;16.716;2023-03-19T05:22:42;109325.25;;;18.16;62.29
48555;BME280;34336;48.270;16.716;2023-03-19T05:25:09;109325.25;;;18.16;60.73
48555;BME280;34336;48.270;16.716;2023-03-19T05:27:38;109325.25;;;18.16;60.07
48555;BME280;34336;48.270;16.716;2023-03-19T05:30:08;109325.25;;;18.16;58.42
48555;BME280;34336;48.270;16.716;2023-03-19T05:32:58;109325.25;;;18.16;57.27
48555;BME280;34336;48.270;16.716;2023-03-19T05:35:51;109325.25;;;18.16;57.27
48555;BME280;34336;48.270;16.716;2023-03-19T05:38:29;109325.25;;;18.16;57.85
48555;BME280;34336;48.270;16.716;2023-03-19T05:41:04;109325.25;;;18.16;58.52
48555;BME280;34336;48.270;16.716;2023-03-19T05:43:40;109325.25;;;18.16;57.93
48555;BME280;34336;48.270;16.716;2023-03-19T05:46:15;109325.25;;;18.16;58.07
48555;BME280;34336;48.270;16.716;2023-03-19T05:48:42;109325.25;;;18.16;57.96
48555;BME280;34336;48.270;16.716;2023-03-19T05:51:09;109325.25;;;18.16;55.52
48555;BME280;34336;48.270;16.716;2023-03-19T05:53:40;109325.25;;;18.16;53.87
48555;BME280;34336;48.270;16.716;2023-03-19T05:56:39;109325.25;;;18.16;52.47
48555;BME280;34336;48.270;16.716;2023-03-19T05:59:22;109325.25;;;18.16;51.54
48555;BME280;34336;48.270;16.716;2023-03-19T06:02:09;109325.25;;;18.16;50.61
48555;BME280;34336;48.270;16.716;2023-03-19T06:04:36;109325.25;;;18.16;49.44
48555;BME280;34336;48.270;16.716;2023-03-19T06:07:03;109325.25;;;18.16;49.76
48555;BME280;34336;48.270;16.716;2023-03-19T06:09:30;109325.25;;;18.16;50.13
48555;BME280;34336;48.270;16.716;2023-03-19T06:11:56;109325.25;;;18.16;50.45
48555;BME280;34336;48.270;16.716;2023-03-19T06:14:43;109325.25;;;18.16;51.66
48555;BME280;34336;48.270;16.716;2023-03-19T06:17:32;109325.25;;;18.16;52.02
48555;BME280;34336;48.270;16.716;2023-03-19T06:20:03;109325.25;;;18.16;51.14
48555;BME280;34336;48.270;16.716;2023-03-19T06:22:29;109325.25;;;18.16;51.44
48555;BME280;34336;48.270;16.716;2023-03-19T06:24:56;109325.25;;;18.16;50.91
48555;BME280;34336;48.270;16.716;2023-03-19T06:27:23;109325.25;;;18.16;51.99
48555;BME280;34336;48.270;16.716;2023-03-19T06:29:52;109325.25;;;18.16;51.46
48555;BME280;34336;48.270;16.716;2023-03-19T06:32:24;109325.25;;;18.16;50.13
48555;BME280;34336;48.270;16.716;2023-03-19T06:34:52;109325.25;;;18.16;50.27
48555;BME280;34336;48.270;16.716;2023-03-19T06:37:20;109325.25;;;18.16;50.83
48555;BME280;34336;48.270;16.716;2023-03-19T06:39:47;109325.25;;;18.16;48.61
48555;BME280;34336;48.270;16.716;2023-03-19T06:42:14;109325.25;;;18.16;48.93
48555;BME280;34336;48.270;16.716;2023-03-19T06:44:41;109325.25;;;18.16;48.75
48555;BME280;34336;48.270;16.716;2023-03-19T06:47:08;109325.25;;;18.16;48.49
48555;BME280;34336;48.270;16.716;2023-03-19T06:49:37;109325.25;;;18.16;48.86
48555;BME280;34336;48.270;16.716;2023-03-19T06:52:04;109325.25;;;18.16;48.73
48555;BME280;34336;48.270;16.716;2023-03-19T06:54:32;109325.25;;;18.16;47.42
48555;BME280;34336;48.270;16.716;2023-03-19T06:56:58;109325.25;;;18.16;47.94
48555;BME280;34336;48.270;16.716;2023-03-19T06:59:25;109325.25;;;18.16;47.31
48555;BME280;34336;48.270;16.716;2023-03-19T07:01:51;109325.25;;;18.16;46.58
48555;BME280;34336;48.270;16.716;2023-03-19T07:04:18;109325.25;;;18.16;46.17
48555;BME280;34336;48.270;16.716;2023-03-19T07:06:45;109325.25;;;18.16;45.71
48555;BME280;34336;48.270;16.716;2023-03-19T07:09:12;109325.25;;;18.16;46.36
48555;BME280;34336;48.270;16.716;2023-03-19T07:11:38;109325.25;;;18.16;46.94
48555;BME280;34336;48.270;16.716;2023-03-19T07:14:05;109325.25;;;18.16;46.76
48555;BME280;34336;48.270;16.716;2023-03-19T07:16:31;109325.25;;;18.16;47.74
48555;BME280;34336;48.270;16.716;2023-03-19T07:18:58;109325.25;;;18.16;47.95
48555;BME280;34336;48.270;16.716;2023-03-19T07:21:24;109325.25;;;18.16;48.34
48555;BME280;34336;48.270;16.716;2023-03-19T07:23:51;109325.25;;;18.16;47.91
48555;BME280;34336;48.270;16.716;2023-03-19T07:26:18;109325.25;;;18.16;48.24
48555;BME280;34336;48.270;16.716;2023-03-19T07:28:44;109325.25;;;18.16;47.99
48555;BME280;34336;48.270;16.716;2023-03-19T07:31:11;109325.25;;;18.16;47.53
48555;BME280;34336;48.270;16.716;2023-03-19T07:33:38;109325.25;;;18.16;47.30
48555;BME280;34336;48.270;16.716;2023-03-19T07:36:05;109325.25;;;18.16;46.48
48555;BME280;34336;48.270;16.716;2023-03-19T07:38:32;109325.25;;;18.16;46.02
48555;BME280;34336;48.270;16.716;2023-03-19T07:40:59;109325.25;;;18.16;45.84
48555;BME280;34336;48.270;16.716;2023-03-19T07:43:28;109325.25;;;18.16;44.98
48555;BME280;34336;48.270;16.716;2023-03-19T07:45:55;109325.25;;;18.16;46.42
48555;BME280;34336;48.270;16.716;2023-03-19T07:48:21;109325.25;;;18.16;46.22
48555;BME280;34336;48.270;16.716;2023-03-19T07:50:51;109325.25;;;18.16;45.43
48555;BME280;34336;48.270;16.716;2023-03-19T07:53:17;109325.25;;;18.16;45.26
48555;BME280;34336;48.270;16.716;2023-03-19T07:55:44;109325.25;;;18.16;43.97
48555;BME280;34336;48.270;16.716;2023-03-19T07:58:11;109325.25;;;18.16;43.03
48555;BME280;34336;48.270;16.716;2023-03-19T08:00:38;109325.25;;;18.16;42.72
48555;BME280;34336;48.270;16.716;2023-03-19T08:03:04;109325.25;;;18.16;44.04
48555;BME280;34336;48.270;16.716;2023-03-19T08:05:31;109325.25;;;18.16;44.36
48555;BME280;34336;48.270;16.716;2023-03-19T08:07:58;109325.25;;;18.16;46.48
48555;BME280;34336;48.270;16.716;2023-03-19T08:10:27;109325.25;;;18.16;46.10
48555;BME280;34336;48.270;16.716;2023-03-19T08:12:54;109325.25;;;18.16;46.32
48555;BME280;34336;48.270;16.716;2023-03-19T08:15:21;109325.25;;;18.16;45.76
48555;BME280;34336;48.270;16.716;2023-03-19T08:17:47;109325.25;;;18.16;44.30
48555;BME280;34336;48.270;16.716;2023-03-19T08:20:14;109325.25;;;18.16;44.30
48555;BME280;34336;48.270;16.716;2023-03-19T08:22:42;109325.25;;;18.16;44.12
48555;BME280;34336;48.270;16.716;2023-03-19T08:25:09;109325.25;;;18.16;43.70
48555;BME280;34336;48.270;16.716;2023-03-19T08:27:35;109325.25;;;18.16;44.85
48555;BME280;34336;48.270;16.716;2023-03-19T08:30:03;109325.25;;;18.16;43.75
48555;BME280;34336;48.270;16.716;2023-03-19T08:32:30;109325.25;;;18.16;43.46
48555;BME280;34336;48.270;16.716;2023-03-19T08:34:56;109325.25;;;18.16;43.46
48555;BME280;34336;48.270;16.716;2023-03-19T08:37:23;109325.25;;;18.16;44.15
48555;BME280;34336;48.270;16.716;2023-03-19T08:39:50;109325.25;;;18.16;43.23
48555;BME280;34336;48.270;16.716;2023-03-19T08:42:20;109325.25;;;18.16;42.74
48555;BME280;34336;48.270;16.716;2023-03-19T08:44:48;109325.25;;;18.16;43.60
48555;BME280;34336;48.270;16.716;2023-03-19T08:47:14;109325.25;;;18.16;44.01
48555;BME280;34336;48.270;16.716;2023-03-19T08:49:41;109325.25;;;18.16;43.66
48555;BME280;34336;48.270;16.716;2023-03-19T08:52:08;109325.25;;;18.16;43.52
48555;BME280;34336;48.270;16.716;2023-03-19T08:54:35;109325.25;;;18.16;44.03
48555;BME280;34336;48.270;16.716;2023-03-19T08:57:02;109325.25;;;18.16;45.49
48555;BME280;34336;48.270;16.716;2023-03-19T08:59:29;109325.25;;;18.16;45.71
48555;BME280;34336;48.270;16.716;2023-03-19T09:01:59;109325.25;;;18.16;46.34
48555;BME280;34336;48.270;16.716;2023-03-19T09:04:26;109325.25;;;18.16;46.77
48555;BME280;34336;48.270;16.716;2023-03-19T09:06:52;109325.25;;;18.16;45.92
48555;BME280;34336;48.270;16.716;2023-03-19T09:09:20;109325.25;;;18.16;45.09
48555;BME280;34336;48.270;16.716;2023-03-19T09:11:47;109325.25;;;18.16;44.66
48555;BME280;34336;48.270;16.716;2023-03-19T09:14:14;109325.25;;;18.16;45.78
48555;BME280;34336;48.270;16.716;2023-03-19T09:16:42;109325.25;;;18.16;46.02
48555;BME280;34336;48.270;16.716;2023-03-19T09:19:09;109325.25;;;18.16;45.20
48555;BME280;34336;48.270;16.716;2023-03-19T09:21:35;109325.25;;;18.16;44.92
48555;BME280;34336;48.270;16.716;2023-03-19T09:24:02;109325.25;;;18.16;44.90
48555;BME280;34336;48.270;16.716;2023-03-19T09:26:29;109325.25;;;18.16;45.63
48555;BME280;34336;48.270;16.716;2023-03-19T09:28:56;109325.25;;;18.16;44.67
48555;BME280;34336;48.270;16.716;2023-03-19T09:31:23;109325.25;;;18.16;44.75
48555;BME280;34336;48.270;16.716;2023-03-19T09:33:50;109325.25;;;18.16;45.20
48555;BME280;34336;48.270;16.716;2023-03-19T09:36:17;109325.25;;;18.16;44.57
48555;BME280;34336;48.270;16.716;2023-03-19T09:38:43;109325.25;;;18.16;44.64
48555;BME280;34336;48.270;16.716;2023-03-19T09:41:28;109325.25;;;18.16;43.49
48555;BME280;34336;48.270;16.716;2023-03-19T09:46:44;109325.25;;;18.16;44.09
48555;BME280;34336;48.270;16.716;2023-03-19T09:49:21;109325.25;;;18.16;44.52
48555;BME280;34336;48.270;16.716;2023-03-19T09:51:54;109325.25;;;18.16;44.60
48555;BME280;34336;48.270;16.716;2023-03-19T09:56:51;109325.25;;;18.16;43.38
48555;BME280;34336;48.270;16.716;2023-03-19T09:59:18;109325.25;;;18.16;43.60
48555;BME280;34336;48.270;16.716;2023-03-19T10:01:47;109325.25;;;18.16;43.09
48555;BME280;34336;48.270;16.716;2023-03-19T10:06:42;109325.25;;;18.16;42.64
48555;BME280;34336;48.270;16.716;2023-03-19T10:17:01;109325.25;;;18.16;43.44
48555;BME280;34336;48.270;16.716;2023-03-19T10:19:35;109325.25;;;18.16;42.77
48555;BME280;34336;48.270;16.716;2023-03-19T10:22:07;109325.25;;;18.16;42.33
48555;BME280;34336;48.270;16.716;2023-03-19T10:24:38;109325.25;;;18.16;42.61
48555;BME280;34336;48.270;16.716;2023-03-19T10:27:13;109325.25;;;18.16;41.40
48555;BME280;34336;48.270;16.716;2023-03-19T10:29:40;109325.25;;;18.16;41.37
48555;BME280;34336;48.270;16.716;2023-03-19T10:34:45;109325.25;;;18.16;41.30
48555;BME280;34336;48.270;16.716;2023-03-19T10:37:21;109325.25;;;18.16;42.98
48555;BME280;34336;48.270;16.716;2023-03-19T10:39:49;109325.25;;;18.16;42.48
48555;BME280;34336;48.270;16.716;2023-03-19T10:45:04;109325.25;;;18.16;41.61
48555;BME280;34336;48.270;16.716;2023-03-19T10:47:38;109325.25;;;18.16;43.98
48555;BME280;34336;48.270;16.716;2023-03-19T10:50:05;109325.25;;;18.16;43.35
48555;BME280;34336;48.270;16.716;2023-03-19T10:52:35;109325.25;;;18.16;40.54
48555;BME280;34336;48.270;16.716;2023-03-19T10:57:39;109325.25;;;18.16;41.43
48555;BME280;34336;48.270;16.716;2023-03-19T11:02:47;109325.25;;;18.16;41.13
48555;BME280;34336;48.270;16.716;2023-03-19T11:05:21;109325.25;;;18.16;40.96
48555;BME280;34336;48.270;16.716;2023-03-19T11:07:49;109325.25;;;18.16;40.94
48555;BME280;34336;48.270;16.716;2023-03-19T11:10:16;109325.25;;;18.16;40.92
48555;BME280;34336;48.270;16.716;2023-03-19T11:12:46;109325.25;;;18.16;40.98
48555;BME280;34336;48.270;16.716;2023-03-19T11:15:15;109325.25;;;18.16;41.08
48555;BME280;34336;48.270;16.716;2023-03-19T11:17:46;109325.25;;;18.16;41.09
48555;BME280;34336;48.270;16.716;2023-03-19T11:22:49;109325.25;;;18.16;41.03
48555;BME280;34336;48.270;16.716;2023-03-19T11:25:17;109325.25;;;18.16;41.69
48555;BME280;34336;48.270;16.716;2023-03-19T11:27:56;109325.25;;;18.16;41.93
48555;BME280;34336;48.270;16.716;2023-03-19T11:30:23;109325.25;;;18.16;40.79
48555;BME280;34336;48.270;16.716;2023-03-19T11:35:22;109325.25;;;18.16;41.48
48555;BME280;34336;48.270;16.716;2023-03-19T11:37:59;109325.25;;;18.16;41.03
48555;BME280;34336;48.270;16.716;2023-03-19T11:44:12;109325.25;;;18.16;40.92
48555;BME280;34336;48.270;16.716;2023-03-19T11:46:25;109325.25;;;18.16;41.37
48555;BME280;34336;48.270;16.716;2023-03-19T11:49:05;109325.25;;;18.16;41.03
48555;BME280;34336;48.270;16.716;2023-03-19T11:51:51;109325.25;;;18.16;40.90
48555;BME280;34336;48.270;16.716;2023-03-19T11:56:58;109325.25;;;18.16;41.30
48555;BME280;34336;48.270;16.716;2023-03-19T12:02:11;109325.25;;;18.16;41.41
48555;BME280;34336;48.270;16.716;2023-03-19T12:07:19;109325.25;;;18.16;40.29
48555;BME280;34336;48.270;16.716;2023-03-19T12:17:46;109325.25;;;18.16;41.35
48555;BME280;34336;48.270;16.716;2023-03-19T12:20:30;109325.25;;;18.16;40.61
48555;BME280;34336;48.270;16.716;2023-03-19T12:28:21;109325.25;;;18.16;41.54
48555;BME280;34336;48.270;16.716;2023-03-19T12:33:37;109325.25;;;18.16;41.05
48555;BME280;34336;48.270;16.716;2023-03-19T12:36:11;109325.25;;;18.16;41.15
48555;BME280;34336;48.270;16.716;2023-03-19T12:38:50;109325.25;;;18.16;40.51
48555;BME280;34336;48.270;16.716;2023-03-19T12:41:21;109325.25;;;18.16;40.24
48555;BME280;34336;48.270;16.716;2023-03-19T12:43:56;109325.25;;;18.16;40.67
48555;BME280;34336;48.270;16.716;2023-03-19T12:48:53;109325.25;;;18.16;40.82
48555;BME280;34336;48.270;16.716;2023-03-19T12:51:23;109325.25;;;18.16;39.83
48555;BME280;34336;48.270;16.716;2023-03-19T12:59:08;109325.25;;;18.16;39.79
48555;BME280;34336;48.270;16.716;2023-03-19T13:01:43;109325.25;;;18.16;41.15
48555;BME280;34336;48.270;16.716;2023-03-19T13:04:13;109325.25;;;18.16;40.03
48555;BME280;34336;48.270;16.716;2023-03-19T13:06:55;109325.25;;;18.16;40.53
48555;BME280;34336;48.270;16.716;2023-03-19T13:09:42;109325.25;;;18.16;41.24
48555;BME280;34336;48.270;16.716;2023-03-19T13:12:14;109325.25;;;18.16;41.77
48555;BME280;34336;48.270;16.716;2023-03-19T13:19:49;109325.25;;;18.16;40.13
48555;BME280;34336;48.270;16.716;2023-03-19T13:22:20;109325.25;;;18.16;40.18
48555;BME280;34336;48.270;16.716;2023-03-19T13:24:47;109325.25;;;18.16;39.34
48555;BME280;34336;48.270;16.716;2023-03-19T13:27:26;109325.25;;;18.16;40.06
48555;BME280;34336;48.270;16.716;2023-03-19T13:32:23;109325.25;;;18.16;41.20
48555;BME280;34336;48.270;16.716;2023-03-19T13:34:49;109325.25;;;18.16;39.76
48555;BME280;34336;48.270;16.716;2023-03-19T13:37:17;109325.25;;;18.16;40.51
48555;BME280;34336;48.270;16.716;2023-03-19T13:39:45;109325.25;;;18.16;41.29
48555;BME280;34336;48.270;16.716;2023-03-19T13:47:47;109325.25;;;18.16;40.42
48555;BME280;34336;48.270;16.716;2023-03-19T13:50:29;109325.25;;;18.16;39.84
48555;BME280;34336;48.270;16.716;2023-03-19T13:55:47;109325.25;;;18.16;39.96
48555;BME280;34336;48.270;16.716;2023-03-19T13:58:19;109325.25;;;18.16;39.93
48555;BME280;34336;48.270;16.716;2023-03-19T14:01:07;109325.25;;;18.16;39.67
48555;BME280;34336;48.270;16.716;2023-03-19T14:03:35;109325.25;;;18.16;40.66
48555;BME280;34336;48.270;16.716;2023-03-19T14:06:02;109325.25;;;18.16;40.24
48555;BME280;34336;48.270;16.716;2023-03-19T14:08:39;109325.25;;;18.16;39.95
48555;BME280;34336;48.270;16.716;2023-03-19T14:11:08;109325.25;;;18.16;41.17
48555;BME280;34336;48.270;16.716;2023-03-19T14:13:46;109325.25;;;18.16;39.97
48555;BME280;34336;48.270;16.716;2023-03-19T14:16:16;109325.25;;;18.16;40.79
48555;BME280;34336;48.270;16.716;2023-03-19T14:18:43;109325.25;;;18.16;40.45
48555;BME280;34336;48.270;16.716;2023-03-19T14:21:13;109325.25;;;18.16;39.53
48555;BME280;34336;48.270;16.716;2023-03-19T14:23:50;109325.25;;;18.16;39.35
48555;BME280;34336;48.270;16.716;2023-03-19T14:26:24;109325.25;;;18.16;40.08